createdAt,value
2019-05-26T00:00:55.806Z,2.63
2019-05-26T00:03:24.208Z,2.73
2019-05-26T00:05:52.492Z,2.20
2019-05-26T00:08:20.797Z,2.23
2019-05-26T00:10:49.202Z,3.27
2019-05-26T00:13:17.493Z,2.40
2019-05-26T00:15:46.005Z,2.80
2019-05-26T00:18:14.346Z,2.50
2019-05-26T00:20:43.268Z,2.57
2019-05-26T00:23:11.615Z,2.37
2019-05-26T00:25:39.930Z,2.73
2019-05-26T00:28:08.212Z,2.33
2019-05-26T00:30:36.629Z,2.80
2019-05-26T00:33:05.033Z,2.50
2019-05-26T00:35:33.314Z,3.20
2019-05-26T00:38:01.610Z,2.47
2019-05-26T00:40:29.964Z,1.93
2019-05-26T00:42:58.376Z,2.20
2019-05-26T00:45:26.683Z,1.93
2019-05-26T00:47:55.029Z,3.47
2019-05-26T00:50:23.454Z,3.00
2019-05-26T00:52:51.737Z,2.20
2019-05-26T00:55:20.051Z,2.97
2019-05-26T00:57:48.450Z,3.00
2019-05-26T01:00:20.483Z,2.60
2019-05-26T01:02:48.803Z,2.57
2019-05-26T01:05:17.083Z,2.73
2019-05-26T01:07:45.492Z,4.20
2019-05-26T01:10:13.775Z,4.07
2019-05-26T01:12:42.060Z,3.20
2019-05-26T01:15:10.558Z,2.70
2019-05-26T01:17:38.836Z,3.77
2019-05-26T01:20:07.121Z,2.60
2019-05-26T01:22:35.627Z,2.63
2019-05-26T01:25:05.843Z,2.57
2019-05-26T01:27:34.126Z,3.07
2019-05-26T01:30:02.454Z,3.03
2019-05-26T01:32:30.944Z,3.30
2019-05-26T01:34:59.366Z,3.20
2019-05-26T01:37:27.646Z,2.10
2019-05-26T01:39:55.946Z,2.57
2019-05-26T01:42:24.297Z,2.83
2019-05-26T01:44:52.586Z,3.00
2019-05-26T01:47:21.639Z,3.07
2019-05-26T01:49:50.157Z,2.47
2019-05-26T01:52:18.436Z,2.40
2019-05-26T01:54:46.722Z,3.10
2019-05-26T01:57:15.289Z,2.87
2019-05-26T01:59:43.628Z,2.77
2019-05-26T02:02:11.919Z,2.87
2019-05-26T02:04:40.341Z,3.13
2019-05-26T02:07:08.661Z,2.63
2019-05-26T02:09:37.710Z,3.23
2019-05-26T02:12:06.030Z,2.37
2019-05-26T02:14:34.440Z,3.40
2019-05-26T02:17:02.719Z,3.20
2019-05-26T02:19:31.008Z,2.73
2019-05-26T02:21:59.351Z,3.63
2019-05-26T02:24:27.625Z,3.20
2019-05-26T02:26:56.145Z,3.30
2019-05-26T02:29:24.433Z,3.30
2019-05-26T02:31:53.073Z,3.63
2019-05-26T02:34:21.497Z,4.93
2019-05-26T02:36:50.032Z,3.80
2019-05-26T02:39:18.416Z,2.87
2019-05-26T02:41:46.833Z,4.00
2019-05-26T02:44:15.281Z,3.70
2019-05-26T02:46:43.655Z,4.50
2019-05-26T02:49:11.956Z,3.60
2019-05-26T02:51:40.273Z,4.37
2019-05-26T02:54:08.562Z,3.40
2019-05-26T02:56:36.894Z,4.33
2019-05-26T02:59:05.277Z,4.07
2019-05-26T03:01:33.634Z,3.87
2019-05-26T03:04:01.914Z,4.30
2019-05-26T03:06:30.242Z,3.40
2019-05-26T03:08:58.562Z,4.40
2019-05-26T03:11:26.943Z,4.00
2019-05-26T03:13:55.282Z,3.93
2019-05-26T03:16:23.566Z,4.10
2019-05-26T03:18:52.588Z,4.83
2019-05-26T03:21:21.490Z,3.50
2019-05-26T03:23:50.161Z,4.13
2019-05-26T03:26:18.521Z,3.87
2019-05-26T03:28:46.861Z,3.93
2019-05-26T03:31:15.312Z,4.13
2019-05-26T03:33:43.591Z,5.10
2019-05-26T03:36:12.578Z,4.43
2019-05-26T03:38:41.060Z,4.50
2019-05-26T03:41:09.643Z,4.90
2019-05-26T03:43:38.086Z,4.87
2019-05-26T03:46:12.298Z,3.57
2019-05-26T03:48:40.609Z,4.73
2019-05-26T03:51:09.018Z,4.30
2019-05-26T03:53:37.406Z,4.73
2019-05-26T03:56:05.694Z,4.63
2019-05-26T03:58:33.996Z,4.40
2019-05-26T04:01:02.304Z,5.20
2019-05-26T04:03:31.422Z,4.47
2019-05-26T04:05:59.712Z,6.27
2019-05-26T04:08:28.025Z,4.67
2019-05-26T04:10:56.343Z,6.30
2019-05-26T04:13:24.622Z,6.10
2019-05-26T04:15:52.935Z,6.73
2019-05-26T04:18:21.223Z,7.70
2019-05-26T04:20:49.674Z,7.50
2019-05-26T04:23:17.964Z,6.43
2019-05-26T04:25:46.404Z,6.83
2019-05-26T04:28:14.712Z,6.70
2019-05-26T04:30:43.060Z,7.20
2019-05-26T04:33:11.364Z,7.27
2019-05-26T04:35:39.651Z,7.13
2019-05-26T04:38:07.997Z,6.90
2019-05-26T04:40:36.744Z,8.47
2019-05-26T04:43:05.130Z,7.17
2019-05-26T04:45:33.435Z,7.13
2019-05-26T04:48:01.776Z,8.10
2019-05-26T04:50:30.058Z,7.90
2019-05-26T04:53:06.219Z,6.60
2019-05-26T04:55:28.677Z,7.63
2019-05-26T04:57:57.075Z,7.30
2019-05-26T05:00:25.385Z,8.10
2019-05-26T05:02:53.734Z,8.20
2019-05-26T05:05:22.712Z,8.73
2019-05-26T05:07:51.139Z,8.83
2019-05-26T05:10:19.427Z,8.90
2019-05-26T05:12:47.718Z,9.83
2019-05-26T05:15:16.221Z,10.00
2019-05-26T05:17:44.618Z,10.40
2019-05-26T05:20:12.908Z,10.67
2019-05-26T05:22:41.320Z,10.50
2019-05-26T05:25:14.652Z,11.70
2019-05-26T05:27:39.983Z,11.77
2019-05-26T05:30:08.522Z,11.20
2019-05-26T05:32:36.825Z,11.00
2019-05-26T05:35:09.476Z,12.43
2019-05-26T05:37:38.410Z,10.90
2019-05-26T05:40:07.622Z,12.00
2019-05-26T05:42:35.905Z,12.20
2019-05-26T05:45:08.405Z,10.97
2019-05-26T05:47:36.729Z,12.03
2019-05-26T05:50:08.903Z,12.97
2019-05-26T05:52:37.288Z,12.77
2019-05-26T05:55:05.944Z,12.57
2019-05-26T05:57:34.259Z,12.40
2019-05-26T06:00:02.738Z,12.70
2019-05-26T06:02:31.113Z,13.43
2019-05-26T06:04:59.430Z,13.23
2019-05-26T06:07:27.722Z,12.00
2019-05-26T06:09:56.143Z,12.07
2019-05-26T06:12:24.630Z,13.00
2019-05-26T06:14:53.033Z,12.20
2019-05-26T06:17:21.464Z,12.77
2019-05-26T06:19:49.828Z,11.97
2019-05-26T06:22:18.124Z,12.03
2019-05-26T06:24:46.564Z,12.83
2019-05-26T06:27:14.857Z,11.87
2019-05-26T06:29:57.928Z,12.13
2019-05-26T06:32:13.639Z,10.97
2019-05-26T06:34:42.341Z,11.63
2019-05-26T06:37:10.635Z,11.10
2019-05-26T06:39:38.962Z,12.00
2019-05-26T06:42:07.256Z,11.63
2019-05-26T06:44:52.139Z,9.53
2019-05-26T06:47:05.725Z,11.40
2019-05-26T06:49:34.012Z,12.87
2019-05-26T06:52:02.407Z,9.77
2019-05-26T06:54:30.802Z,10.70
2019-05-26T06:56:59.150Z,10.53
2019-05-26T06:59:27.456Z,10.77
2019-05-26T07:01:55.796Z,10.60
2019-05-26T07:04:24.085Z,9.60
2019-05-26T07:06:52.382Z,9.03
2019-05-26T07:09:20.744Z,9.50
2019-05-26T07:11:57.045Z,10.07
2019-05-26T07:14:19.268Z,10.67
2019-05-26T07:16:47.609Z,11.90
2019-05-26T07:19:15.897Z,9.63
2019-05-26T07:21:44.202Z,9.80
2019-05-26T07:24:12.675Z,8.27
2019-05-26T07:26:41.022Z,10.10
2019-05-26T07:29:09.408Z,9.70
2019-05-26T07:31:37.740Z,9.30
2019-05-26T07:34:06.032Z,10.33
2019-05-26T07:36:34.381Z,11.57
2019-05-26T07:39:02.939Z,10.77
2019-05-26T07:41:32.019Z,8.60
2019-05-26T07:44:00.348Z,10.50
2019-05-26T07:46:28.753Z,9.03
2019-05-26T07:48:57.046Z,10.07
2019-05-26T07:51:25.377Z,10.37
2019-05-26T07:53:56.110Z,11.47
2019-05-26T07:56:24.333Z,9.30
2019-05-26T07:58:52.620Z,9.80
2019-05-26T08:01:24.279Z,9.77
2019-05-26T08:03:51.079Z,9.47
2019-05-26T08:06:19.396Z,10.27
2019-05-26T08:08:47.716Z,10.60
2019-05-26T08:11:16.030Z,10.63
2019-05-26T08:13:44.333Z,9.43
2019-05-26T08:16:12.706Z,9.10
2019-05-26T08:18:41.102Z,9.23
2019-05-26T08:21:09.435Z,10.73
2019-05-26T08:23:37.749Z,10.03
2019-05-26T08:26:06.157Z,8.87
2019-05-26T08:28:34.510Z,11.00
2019-05-26T08:31:02.921Z,9.80
2019-05-26T08:33:31.367Z,10.67
2019-05-26T08:35:59.657Z,9.70
2019-05-26T08:38:28.020Z,10.27
2019-05-26T08:40:56.309Z,10.10
2019-05-26T08:43:24.741Z,8.70
2019-05-26T08:45:53.022Z,9.33
2019-05-26T08:48:21.436Z,8.60
2019-05-26T08:50:49.851Z,8.97
2019-05-26T08:53:18.172Z,8.37
2019-05-26T08:55:46.454Z,8.20
2019-05-26T08:58:14.887Z,8.73
2019-05-26T09:00:43.334Z,9.30
2019-05-26T09:03:11.606Z,9.00
2019-05-26T09:05:39.954Z,8.50
2019-05-26T09:08:08.491Z,9.13
2019-05-26T09:10:36.731Z,8.73
2019-05-26T09:13:05.042Z,8.30
2019-05-26T09:15:33.642Z,8.63
2019-05-26T09:18:01.987Z,8.60
2019-05-26T09:20:30.371Z,8.37
2019-05-26T09:22:58.705Z,8.10
2019-05-26T09:25:26.997Z,8.70
2019-05-26T09:27:55.295Z,9.40
2019-05-26T09:30:24.425Z,8.70
2019-05-26T09:32:52.713Z,10.20
2019-05-26T09:35:20.998Z,8.90
2019-05-26T09:37:49.329Z,6.63
2019-05-26T09:40:17.630Z,7.37
2019-05-26T09:42:45.916Z,7.27
2019-05-26T09:45:14.393Z,7.90
2019-05-26T09:47:42.873Z,7.63
2019-05-26T09:50:11.159Z,7.10
2019-05-26T09:52:39.468Z,7.90
2019-05-26T09:55:07.815Z,7.40
2019-05-26T09:57:36.188Z,6.87
2019-05-26T10:00:07.900Z,7.47
2019-05-26T10:02:36.285Z,7.50
2019-05-26T10:05:06.104Z,6.80
2019-05-26T10:07:34.459Z,7.67
2019-05-26T10:10:03.484Z,7.60
2019-05-26T10:12:31.866Z,6.07
2019-05-26T10:15:00.200Z,6.93
2019-05-26T10:17:28.485Z,6.67
2019-05-26T10:19:56.897Z,6.97
2019-05-26T10:22:25.409Z,5.97
2019-05-26T10:24:54.468Z,6.00
2019-05-26T10:27:22.807Z,7.23
2019-05-26T10:29:51.126Z,7.23
2019-05-26T10:32:19.434Z,7.00
2019-05-26T10:34:47.815Z,7.43
2019-05-26T10:37:16.268Z,7.40
2019-05-26T10:39:45.290Z,7.50
2019-05-26T10:42:13.781Z,6.17
2019-05-26T10:44:42.070Z,7.50
2019-05-26T10:47:10.389Z,7.57
2019-05-26T10:49:38.866Z,8.20
2019-05-26T10:52:07.384Z,8.30
2019-05-26T10:54:35.640Z,6.47
2019-05-26T10:57:04.156Z,5.97
2019-05-26T10:59:32.502Z,6.73
2019-05-26T11:02:00.974Z,5.53
2019-05-26T11:04:29.279Z,7.27
2019-05-26T11:06:57.736Z,7.10
2019-05-26T11:09:26.627Z,6.27
2019-05-26T11:11:54.907Z,6.00
2019-05-26T11:14:23.241Z,4.37
2019-05-26T11:16:51.681Z,5.90
2019-05-26T11:19:20.047Z,6.10
2019-05-26T11:21:48.554Z,6.30
2019-05-26T11:24:16.981Z,7.10
2019-05-26T11:26:45.276Z,6.17
2019-05-26T11:29:13.586Z,6.03
2019-05-26T11:31:41.877Z,7.33
2019-05-26T11:34:10.242Z,7.47
2019-05-26T11:36:38.523Z,7.30
2019-05-26T11:39:07.495Z,7.03
2019-05-26T11:41:35.752Z,6.90
2019-05-26T11:44:17.062Z,7.30
2019-05-26T11:46:37.180Z,7.60
2019-05-26T11:49:05.506Z,7.00
2019-05-26T11:51:33.889Z,6.70
2019-05-26T11:54:02.193Z,5.83
2019-05-26T11:56:30.659Z,7.33
2019-05-26T11:58:59.163Z,6.93
2019-05-26T12:01:27.814Z,6.83
2019-05-26T12:03:56.099Z,6.40
2019-05-26T12:06:24.516Z,6.17
2019-05-26T12:08:52.817Z,5.90
2019-05-26T12:11:21.230Z,6.17
2019-05-26T12:13:49.535Z,5.90
2019-05-26T12:16:17.851Z,5.47
2019-05-26T12:18:46.270Z,6.37
2019-05-26T12:21:14.688Z,5.27
2019-05-26T12:23:42.998Z,4.30
2019-05-26T12:26:11.344Z,4.77
2019-05-26T12:28:39.652Z,5.13
2019-05-26T12:31:08.031Z,4.90
2019-05-26T12:33:36.465Z,5.07
2019-05-26T12:36:05.118Z,5.70
2019-05-26T12:38:35.038Z,4.50
2019-05-26T12:41:03.348Z,4.20
2019-05-26T12:43:31.701Z,5.27
2019-05-26T12:46:00.107Z,4.53
2019-05-26T12:48:28.454Z,5.80
2019-05-26T12:50:56.738Z,4.30
2019-05-26T12:53:25.064Z,4.37
2019-05-26T12:55:53.359Z,4.73
2019-05-26T12:58:21.646Z,4.20
2019-05-26T13:00:54.630Z,5.30
2019-05-26T13:03:19.978Z,4.30
2019-05-26T13:05:48.384Z,4.30
2019-05-26T13:08:16.709Z,4.90
2019-05-26T13:10:45.093Z,4.23
2019-05-26T13:13:13.436Z,4.43
2019-05-26T13:15:42.707Z,4.30
2019-05-26T13:18:11.109Z,4.83
2019-05-26T13:20:39.576Z,5.30
2019-05-26T13:23:07.912Z,4.90
2019-05-26T13:25:36.400Z,5.37
2019-05-26T13:28:04.820Z,4.93
2019-05-26T13:30:34.719Z,4.53
2019-05-26T13:33:03.079Z,5.00
2019-05-26T13:35:31.448Z,6.13
2019-05-26T13:37:59.841Z,6.30
2019-05-26T13:40:29.639Z,5.33
2019-05-26T13:42:58.122Z,4.70
2019-05-26T13:45:26.431Z,5.43
2019-05-26T13:47:54.714Z,4.93
2019-05-26T13:50:23.892Z,4.60
2019-05-26T13:52:52.244Z,4.07
2019-05-26T13:55:20.542Z,4.07
2019-05-26T13:57:49.751Z,3.23
2019-05-26T14:00:18.262Z,2.53
2019-05-26T14:02:46.726Z,2.30
2019-05-26T14:05:15.159Z,2.10
2019-05-26T14:07:44.368Z,1.47
2019-05-26T14:10:14.351Z,1.73
2019-05-26T14:12:42.668Z,2.10
2019-05-26T14:15:12.781Z,1.73
2019-05-26T14:17:41.168Z,1.90
2019-05-26T14:20:10.205Z,1.30
2019-05-26T14:22:38.571Z,1.50
2019-05-26T14:25:07.317Z,1.20
2019-05-26T14:27:35.625Z,0.97
2019-05-26T14:30:05.657Z,1.97
2019-05-26T14:32:34.144Z,1.33
2019-05-26T14:35:02.431Z,1.07
2019-05-26T14:37:30.701Z,1.17
2019-05-26T14:39:59.118Z,1.87
2019-05-26T14:42:27.519Z,1.67
2019-05-26T14:44:55.798Z,1.60
2019-05-26T14:47:24.249Z,1.60
2019-05-26T14:49:52.555Z,1.23
2019-05-26T14:52:20.838Z,2.13
2019-05-26T14:54:49.270Z,2.00
2019-05-26T14:57:17.557Z,2.20
2019-05-26T14:59:45.841Z,1.67
2019-05-26T15:02:14.163Z,2.20
2019-05-26T15:04:42.432Z,2.33
2019-05-26T15:07:10.765Z,2.10
2019-05-26T15:09:39.075Z,1.87
2019-05-26T15:12:07.561Z,2.30
2019-05-26T15:14:36.041Z,2.30
2019-05-26T15:17:04.332Z,2.80
2019-05-26T15:19:32.696Z,2.00
2019-05-26T15:22:01.186Z,1.87
2019-05-26T15:24:29.474Z,1.97
2019-05-26T15:26:57.753Z,1.90
2019-05-26T15:29:26.085Z,2.20
2019-05-26T15:31:54.362Z,2.03
2019-05-26T15:34:23.209Z,1.50
2019-05-26T15:36:51.863Z,1.37
2019-05-26T15:39:20.273Z,1.57
2019-05-26T15:41:48.551Z,1.33
2019-05-26T15:44:16.849Z,1.60
2019-05-26T15:46:45.162Z,1.13
2019-05-26T15:49:13.456Z,1.20
2019-05-26T15:51:41.732Z,0.97
2019-05-26T15:54:10.035Z,1.20
2019-05-26T15:56:38.311Z,1.13
2019-05-26T15:59:06.634Z,1.20
2019-05-26T16:01:34.915Z,1.37
2019-05-26T16:04:03.201Z,1.13
2019-05-26T16:06:31.539Z,2.60
2019-05-26T16:08:59.874Z,0.93
2019-05-26T16:11:28.339Z,1.43
2019-05-26T16:13:56.781Z,1.70
2019-05-26T16:16:40.157Z,1.50
2019-05-26T16:18:55.525Z,0.90
2019-05-26T16:21:28.060Z,0.70
2019-05-26T16:23:53.948Z,0.90
2019-05-26T16:26:22.332Z,0.70
2019-05-26T16:28:50.736Z,0.87
2019-05-26T16:31:19.069Z,1.30
2019-05-26T16:33:47.357Z,0.97
2019-05-26T16:36:15.777Z,0.87
2019-05-26T16:38:44.059Z,2.00
2019-05-26T16:41:12.389Z,1.97
2019-05-26T16:43:40.822Z,1.23
2019-05-26T16:46:09.156Z,1.20
2019-05-26T16:48:37.498Z,1.17
2019-05-26T16:51:05.900Z,1.33
2019-05-26T16:53:34.258Z,1.10
2019-05-26T16:56:02.537Z,1.13
2019-05-26T16:58:30.874Z,1.20
2019-05-26T17:01:01.844Z,1.17
2019-05-26T17:03:30.133Z,1.20
2019-05-26T17:06:07.630Z,1.00
2019-05-26T17:08:28.584Z,1.80
2019-05-26T17:10:57.035Z,1.27
2019-05-26T17:13:25.367Z,1.53
2019-05-26T17:15:53.734Z,1.30
2019-05-26T17:18:22.378Z,1.43
2019-05-26T17:20:50.723Z,1.60
2019-05-26T17:23:19.098Z,1.20
2019-05-26T17:25:47.394Z,1.90
2019-05-26T17:28:15.731Z,1.50
2019-05-26T17:30:44.175Z,0.80
2019-05-26T17:33:12.522Z,1.17
2019-05-26T17:35:40.850Z,1.33
2019-05-26T17:38:09.155Z,1.00
2019-05-26T17:40:37.525Z,0.70
2019-05-26T17:43:05.870Z,1.00
2019-05-26T17:45:34.214Z,0.67
2019-05-26T17:48:02.628Z,0.50
2019-05-26T17:50:30.918Z,0.77
2019-05-26T17:52:59.323Z,0.70
2019-05-26T17:55:27.606Z,0.83
2019-05-26T17:57:56.008Z,0.60
2019-05-26T18:00:24.294Z,0.80
2019-05-26T18:02:52.616Z,0.60
2019-05-26T18:05:20.930Z,1.00
2019-05-26T18:07:49.257Z,0.60
2019-05-26T18:10:17.835Z,0.60
2019-05-26T18:12:46.211Z,0.40
2019-05-26T18:15:14.509Z,0.77
2019-05-26T18:17:47.616Z,0.53
2019-05-26T18:20:13.107Z,0.57
2019-05-26T18:22:41.542Z,0.40
2019-05-26T18:25:10.155Z,0.63
2019-05-26T18:27:38.628Z,0.70
2019-05-26T18:30:07.477Z,0.50
2019-05-26T18:32:35.894Z,0.70
2019-05-26T18:35:06.488Z,0.60
2019-05-26T18:37:35.078Z,0.50
2019-05-26T18:40:03.822Z,0.80
2019-05-26T18:42:32.373Z,0.70
2019-05-26T18:45:01.067Z,0.63
2019-05-26T18:47:30.794Z,0.50
2019-05-26T18:49:59.282Z,0.70
2019-05-26T18:52:27.931Z,0.50
2019-05-26T18:54:56.486Z,0.70
2019-05-26T18:57:25.064Z,1.07
2019-05-26T18:59:53.574Z,0.67
2019-05-26T19:02:22.507Z,0.83
2019-05-26T19:04:50.898Z,0.67
2019-05-26T19:07:19.346Z,0.67
2019-05-26T19:09:47.779Z,0.87
2019-05-26T19:12:16.725Z,1.03
2019-05-26T19:14:45.405Z,0.83
2019-05-26T19:17:15.755Z,0.90
2019-05-26T19:19:44.297Z,0.70
2019-05-26T19:22:13.589Z,0.70
2019-05-26T19:24:42.142Z,0.93
2019-05-26T19:27:10.661Z,0.93
2019-05-26T19:29:40.322Z,1.30
2019-05-26T19:32:09.020Z,1.50
2019-05-26T19:34:37.487Z,1.27
2019-05-26T19:37:05.963Z,1.43
2019-05-26T19:39:34.405Z,1.53
2019-05-26T19:42:02.875Z,1.73
2019-05-26T19:44:31.367Z,1.90
2019-05-26T19:47:00.190Z,1.30
2019-05-26T19:49:28.731Z,1.83
2019-05-26T19:51:58.308Z,2.10
2019-05-26T19:54:26.638Z,2.10
2019-05-26T19:56:55.194Z,1.67
2019-05-26T19:59:23.503Z,1.17
2019-05-26T20:01:51.926Z,1.53
2019-05-26T20:04:20.258Z,1.50
2019-05-26T20:06:48.685Z,2.07
2019-05-26T20:09:17.028Z,1.40
2019-05-26T20:11:45.426Z,1.83
2019-05-26T20:14:13.734Z,1.60
2019-05-26T20:16:42.085Z,1.90
2019-05-26T20:19:10.389Z,1.40
2019-05-26T20:21:38.737Z,2.30
2019-05-26T20:24:07.059Z,1.60
2019-05-26T20:26:35.384Z,1.33
2019-05-26T20:29:04.460Z,1.83
2019-05-26T20:31:32.864Z,1.93
2019-05-26T20:34:01.172Z,2.00
2019-05-26T20:36:29.455Z,2.20
2019-05-26T20:38:57.734Z,1.73
2019-05-26T20:41:26.109Z,1.90
2019-05-26T20:43:54.398Z,2.33
2019-05-26T20:46:22.702Z,1.73
2019-05-26T20:48:52.394Z,2.40
2019-05-26T20:51:20.889Z,2.53
2019-05-26T20:53:49.195Z,2.57
2019-05-26T20:56:17.572Z,2.73
2019-05-26T20:58:45.875Z,2.80
2019-05-26T21:01:14.174Z,2.83
2019-05-26T21:03:42.471Z,2.33
2019-05-26T21:06:10.781Z,2.87
2019-05-26T21:08:39.227Z,2.80
2019-05-26T21:11:07.507Z,4.00
2019-05-26T21:13:35.799Z,2.90
2019-05-26T21:16:04.143Z,3.23
2019-05-26T21:18:32.460Z,2.97
2019-05-26T21:21:00.763Z,3.33
2019-05-26T21:23:29.072Z,2.77
2019-05-26T21:25:57.380Z,3.27
2019-05-26T21:28:25.669Z,2.63
2019-05-26T21:30:54.145Z,3.57
2019-05-26T21:33:22.430Z,3.20
2019-05-26T21:35:50.772Z,3.00
2019-05-26T21:38:19.186Z,3.43
2019-05-26T21:40:47.478Z,2.73
2019-05-26T21:43:15.875Z,2.50
2019-05-26T21:45:44.229Z,2.73
2019-05-26T21:48:12.582Z,2.40
2019-05-26T21:50:40.880Z,2.93
2019-05-26T21:53:09.184Z,2.17
2019-05-26T21:55:37.516Z,3.27
2019-05-26T21:58:05.803Z,2.00
2019-05-26T22:00:44.871Z,2.37
2019-05-26T22:03:13.149Z,1.93
2019-05-26T22:05:41.514Z,1.80
2019-05-26T22:08:09.824Z,1.70
2019-05-26T22:10:38.112Z,1.73
2019-05-26T22:13:06.484Z,1.90
2019-05-26T22:15:34.811Z,1.77
2019-05-26T22:18:03.144Z,1.50
2019-05-26T22:20:31.438Z,1.83
2019-05-26T22:22:59.721Z,1.60
2019-05-26T22:25:28.336Z,1.70
2019-05-26T22:27:56.623Z,1.43
2019-05-26T22:30:24.955Z,1.80
2019-05-26T22:32:53.248Z,2.23
2019-05-26T22:35:21.534Z,1.60
2019-05-26T22:37:49.852Z,1.40
2019-05-26T22:40:18.134Z,1.60
2019-05-26T22:42:46.442Z,1.33
2019-05-26T22:45:15.143Z,1.93
2019-05-26T22:47:43.424Z,1.80
2019-05-26T22:50:11.727Z,1.87
2019-05-26T22:52:40.056Z,2.00
2019-05-26T22:55:08.477Z,2.57
2019-05-26T22:57:36.779Z,2.83
2019-05-26T23:00:07.104Z,3.03
2019-05-26T23:02:35.595Z,2.77
2019-05-26T23:05:04.457Z,2.20
2019-05-26T23:07:32.741Z,2.10
2019-05-26T23:10:02.893Z,2.03
2019-05-26T23:12:31.123Z,2.37
2019-05-26T23:14:59.403Z,2.13
2019-05-26T23:17:27.731Z,2.23
2019-05-26T23:19:58.946Z,2.67
2019-05-26T23:22:27.236Z,3.07
2019-05-26T23:24:55.583Z,3.40
2019-05-26T23:27:23.865Z,2.93
2019-05-26T23:29:52.158Z,2.67
2019-05-26T23:32:20.617Z,3.40
2019-05-26T23:34:48.894Z,2.80
2019-05-26T23:37:17.188Z,2.97
2019-05-26T23:39:45.498Z,3.03
2019-05-26T23:42:14.996Z,2.90
2019-05-26T23:44:43.308Z,2.60
2019-05-26T23:47:11.779Z,3.10
2019-05-26T23:49:40.099Z,2.60
2019-05-26T23:52:08.384Z,2.43
2019-05-26T23:54:36.801Z,2.13
2019-05-26T23:57:05.122Z,2.67
2019-05-26T23:59:33.408Z,3.10
